createdAt,value
2023-02-22T00:00:48.914Z,3.60
2023-02-22T00:03:19.158Z,3.60
2023-02-22T00:06:07.971Z,3.50
2023-02-22T00:08:37.900Z,3.60
2023-02-22T00:11:09.145Z,3.60
2023-02-22T00:13:37.907Z,3.60
2023-02-22T00:16:08.249Z,3.60
2023-02-22T00:18:37.783Z,3.60
2023-02-22T00:21:10.522Z,3.60
2023-02-22T00:23:40.839Z,3.60
2023-02-22T00:26:11.301Z,3.50
2023-02-22T00:28:39.331Z,3.40
2023-02-22T00:31:09.475Z,3.40
2023-02-22T00:33:40.400Z,3.50
2023-02-22T00:36:10.617Z,3.40
2023-02-22T00:38:38.983Z,3.40
2023-02-22T00:41:07.393Z,3.40
2023-02-22T00:43:35.899Z,3.40
2023-02-22T00:46:04.262Z,3.40
2023-02-22T00:48:36.389Z,3.40
2023-02-22T00:51:04.498Z,3.40
2023-02-22T00:53:32.990Z,3.30
2023-02-22T00:56:00.937Z,3.30
2023-02-22T00:58:29.211Z,3.30
2023-02-22T01:00:59.231Z,3.30
2023-02-22T01:03:27.202Z,3.30
2023-02-22T01:05:59.972Z,3.30
2023-02-22T01:08:31.142Z,3.30
2023-02-22T01:10:59.793Z,3.30
2023-02-22T01:13:28.016Z,3.30
2023-02-22T01:15:56.707Z,3.20
2023-02-22T01:18:26.041Z,3.10
2023-02-22T01:20:54.597Z,3.20
2023-02-22T01:23:24.668Z,3.20
2023-02-22T01:25:52.883Z,3.20
2023-02-22T01:28:22.460Z,3.20
2023-02-22T01:30:51.716Z,3.20
2023-02-22T01:33:19.919Z,3.20
2023-02-22T01:35:50.124Z,3.20
2023-02-22T01:38:18.437Z,3.10
2023-02-22T01:40:51.838Z,3.10
2023-02-22T01:43:22.886Z,3.10
2023-02-22T01:46:00.980Z,3.00
2023-02-22T01:48:44.471Z,3.00
2023-02-22T01:51:16.909Z,3.00
2023-02-22T01:53:51.157Z,2.90
2023-02-22T01:56:23.203Z,3.00
2023-02-22T01:58:55.158Z,3.00
2023-02-22T02:01:26.003Z,3.00
2023-02-22T02:03:58.606Z,3.00
2023-02-22T02:06:29.252Z,2.90
2023-02-22T02:09:03.106Z,3.00
2023-02-22T02:11:34.265Z,2.90
2023-02-22T02:14:02.263Z,2.90
2023-02-22T02:16:39.292Z,2.90
2023-02-22T02:19:17.106Z,3.00
2023-02-22T02:22:18.988Z,2.90
2023-02-22T02:25:12.041Z,2.80
2023-02-22T02:27:59.484Z,2.70
2023-02-22T02:30:49.775Z,2.80
2023-02-22T02:33:30.354Z,2.80
2023-02-22T02:36:05.559Z,2.80
2023-02-22T02:38:38.257Z,2.80
2023-02-22T02:41:11.980Z,2.80
2023-02-22T02:43:48.845Z,2.80
2023-02-22T02:46:25.052Z,2.80
2023-02-22T02:48:58.499Z,2.80
2023-02-22T02:51:30.900Z,2.70
2023-02-22T02:54:02.520Z,2.70
2023-02-22T02:56:30.909Z,2.70
2023-02-22T02:58:59.046Z,2.60
2023-02-22T03:01:51.494Z,2.60
2023-02-22T03:04:32.532Z,2.60
2023-02-22T03:07:31.945Z,2.60
2023-02-22T03:10:13.224Z,2.60
2023-02-22T03:12:48.456Z,2.60
2023-02-22T03:15:26.781Z,2.60
2023-02-22T03:18:02.269Z,2.60
2023-02-22T03:20:43.189Z,2.60
2023-02-22T03:23:20.625Z,2.60
2023-02-22T03:25:54.623Z,2.60
2023-02-22T03:28:27.293Z,2.50
2023-02-22T03:31:01.428Z,2.60
2023-02-22T03:33:36.292Z,2.50
2023-02-22T03:36:14.415Z,2.50
2023-02-22T03:38:45.058Z,2.50
2023-02-22T03:41:20.671Z,2.50
2023-02-22T03:43:51.824Z,2.50
2023-02-22T03:46:20.326Z,2.60
2023-02-22T03:48:55.282Z,2.60
2023-02-22T03:51:26.194Z,2.60
2023-02-22T03:54:00.660Z,2.50
2023-02-22T03:56:39.031Z,2.40
2023-02-22T03:59:09.871Z,2.50
2023-02-22T04:01:39.002Z,2.50
2023-02-22T04:04:07.560Z,2.50
2023-02-22T04:06:40.226Z,2.50
2023-02-22T04:09:08.763Z,2.40
2023-02-22T04:11:36.790Z,2.40
2023-02-22T04:14:05.170Z,2.50
2023-02-22T04:16:33.246Z,2.50
2023-02-22T04:19:02.122Z,2.40
2023-02-22T04:21:30.130Z,2.40
2023-02-22T04:24:01.311Z,2.30
2023-02-22T04:26:29.658Z,2.30
2023-02-22T04:28:59.802Z,2.30
2023-02-22T04:34:24.888Z,2.40
2023-02-22T04:36:53.187Z,2.40
2023-02-22T04:39:23.194Z,2.40
2023-02-22T04:42:11.815Z,2.40
2023-02-22T04:44:40.438Z,2.40
2023-02-22T04:47:08.733Z,2.40
2023-02-22T04:49:38.938Z,2.40
2023-02-22T04:52:08.722Z,2.40
2023-02-22T04:54:42.294Z,2.30
2023-02-22T04:57:10.590Z,2.30
2023-02-22T04:59:38.603Z,2.30
2023-02-22T05:02:07.095Z,2.20
2023-02-22T05:04:36.159Z,2.20
2023-02-22T05:07:04.118Z,2.20
2023-02-22T05:09:32.769Z,2.20
2023-02-22T05:12:03.084Z,2.20
2023-02-22T05:14:31.080Z,2.10
2023-02-22T05:16:59.642Z,2.10
2023-02-22T05:19:30.736Z,2.10
2023-02-22T05:21:59.495Z,2.20
2023-02-22T05:24:27.455Z,2.20
2023-02-22T05:26:56.319Z,2.20
2023-02-22T05:29:25.648Z,2.30
2023-02-22T05:31:54.280Z,2.20
2023-02-22T05:34:22.325Z,2.10
2023-02-22T05:36:50.298Z,2.00
2023-02-22T05:39:18.940Z,2.00
2023-02-22T05:41:47.444Z,2.10
2023-02-22T05:44:15.408Z,2.10
2023-02-22T05:46:47.251Z,2.20
2023-02-22T05:49:15.753Z,2.20
2023-02-22T05:51:43.928Z,2.20
2023-02-22T05:54:12.330Z,2.20
2023-02-22T05:56:40.307Z,2.10
2023-02-22T05:59:08.237Z,2.10
2023-02-22T06:01:36.663Z,2.20
2023-02-22T06:04:06.147Z,2.20
2023-02-22T06:06:35.098Z,2.20
2023-02-22T06:09:04.260Z,2.20
2023-02-22T06:11:33.053Z,2.20
2023-02-22T06:14:01.028Z,2.20
2023-02-22T06:16:29.730Z,2.20
2023-02-22T06:18:58.356Z,2.20
2023-02-22T06:21:29.748Z,2.20
2023-02-22T06:23:57.833Z,2.20
2023-02-22T06:26:26.013Z,2.20
2023-02-22T06:29:14.984Z,2.20
2023-02-22T06:31:43.069Z,2.30
2023-02-22T06:34:11.475Z,2.30
2023-02-22T06:36:42.386Z,2.30
2023-02-22T06:39:11.237Z,2.30
2023-02-22T06:41:39.526Z,2.40
2023-02-22T06:44:07.695Z,2.40
2023-02-22T06:46:36.350Z,2.40
2023-02-22T06:49:04.396Z,2.40
2023-02-22T06:51:36.744Z,2.40
2023-02-22T06:54:06.624Z,2.50
2023-02-22T06:56:34.983Z,2.50
2023-02-22T06:59:03.002Z,2.50
2023-02-22T07:01:31.552Z,2.50
2023-02-22T07:04:00.387Z,2.50
2023-02-22T07:06:28.569Z,2.50
2023-02-22T07:08:57.080Z,2.50
2023-02-22T07:11:26.362Z,2.60
2023-02-22T07:13:55.443Z,2.60
2023-02-22T07:16:24.266Z,2.60
2023-02-22T07:18:52.396Z,2.70
2023-02-22T07:21:20.466Z,2.70
2023-02-22T07:23:53.002Z,2.80
2023-02-22T07:26:21.537Z,2.80
2023-02-22T07:28:50.899Z,2.90
2023-02-22T07:31:19.460Z,3.00
2023-02-22T07:33:48.254Z,3.10
2023-02-22T07:36:17.940Z,3.20
2023-02-22T07:38:48.121Z,3.30
2023-02-22T07:41:16.383Z,3.40
2023-02-22T07:43:45.494Z,3.50
2023-02-22T07:46:15.059Z,3.60
2023-02-22T07:48:43.309Z,3.70
2023-02-22T07:51:11.543Z,3.70
2023-02-22T07:53:40.081Z,3.70
2023-02-22T07:56:08.805Z,3.80
2023-02-22T07:58:59.056Z,3.90
2023-02-22T08:01:28.672Z,4.00
2023-02-22T08:03:56.729Z,4.10
2023-02-22T08:06:25.912Z,4.20
2023-02-22T08:08:53.994Z,4.40
2023-02-22T08:11:22.124Z,4.50
2023-02-22T08:13:50.438Z,4.70
2023-02-22T08:16:18.457Z,4.80
2023-02-22T08:18:47.780Z,4.90
2023-02-22T08:21:17.175Z,5.00
2023-02-22T08:23:45.289Z,5.10
2023-02-22T08:26:17.771Z,5.20
2023-02-22T08:28:45.770Z,5.30
2023-02-22T08:31:13.796Z,5.50
2023-02-22T08:33:42.467Z,5.60
2023-02-22T08:36:12.476Z,5.70
2023-02-22T08:38:41.048Z,5.80
2023-02-22T08:41:09.657Z,5.90
2023-02-22T08:43:37.628Z,6.10
2023-02-22T08:46:06.159Z,6.20
2023-02-22T08:48:34.109Z,6.40
2023-02-22T08:51:02.339Z,6.50
2023-02-22T08:53:33.004Z,6.60
2023-02-22T08:56:00.982Z,6.80
2023-02-22T08:58:28.928Z,6.90
2023-02-22T09:00:57.093Z,7.10
2023-02-22T09:03:25.146Z,7.10
2023-02-22T09:05:53.570Z,7.30
2023-02-22T09:08:21.725Z,7.40
2023-02-22T09:10:51.642Z,7.50
2023-02-22T09:13:20.448Z,7.60
2023-02-22T09:15:48.506Z,7.70
2023-02-22T09:18:18.132Z,7.80
2023-02-22T09:20:46.272Z,7.90
2023-02-22T09:23:14.559Z,8.00
2023-02-22T09:25:42.524Z,8.20
2023-02-22T09:28:11.884Z,8.20
2023-02-22T09:30:40.282Z,8.30
2023-02-22T09:33:10.783Z,8.40
2023-02-22T09:35:42.388Z,8.50
2023-02-22T09:38:11.444Z,8.50
2023-02-22T09:40:45.359Z,8.60
2023-02-22T09:43:40.691Z,8.70
2023-02-22T09:46:20.213Z,8.80
2023-02-22T09:49:06.212Z,8.80
2023-02-22T09:51:41.200Z,9.00
2023-02-22T09:54:19.341Z,9.20
2023-02-22T09:56:49.776Z,9.30
2023-02-22T09:59:26.948Z,9.40
2023-02-22T10:01:59.426Z,9.60
2023-02-22T10:04:45.007Z,9.80
2023-02-22T10:07:19.357Z,9.90
2023-02-22T10:09:52.784Z,10.00
2023-02-22T10:12:30.625Z,10.20
2023-02-22T10:15:30.511Z,10.40
2023-02-22T10:18:14.777Z,10.50
2023-02-22T10:20:52.017Z,10.70
2023-02-22T10:23:26.944Z,10.80
2023-02-22T10:26:14.860Z,10.90
2023-02-22T10:28:48.936Z,11.00
2023-02-22T10:31:24.315Z,11.10
2023-02-22T10:33:59.791Z,11.20
2023-02-22T10:36:28.722Z,11.20
2023-02-22T10:39:00.064Z,11.30
2023-02-22T10:41:31.815Z,11.40
2023-02-22T10:44:00.260Z,11.50
2023-02-22T10:46:31.552Z,11.60
2023-02-22T10:49:07.127Z,11.60
2023-02-22T10:51:35.175Z,11.60
2023-02-22T10:54:22.281Z,11.70
2023-02-22T10:56:53.873Z,11.70
2023-02-22T10:59:34.381Z,11.60
2023-02-22T11:02:17.581Z,11.70
2023-02-22T11:04:47.762Z,11.80
2023-02-22T11:07:23.850Z,11.90
2023-02-22T11:09:54.416Z,12.00
2023-02-22T11:12:28.725Z,12.20
2023-02-22T11:14:58.016Z,12.10
2023-02-22T11:17:32.204Z,12.20
2023-02-22T11:20:01.212Z,12.30
2023-02-22T11:22:32.347Z,12.40
2023-02-22T11:25:03.275Z,12.40
2023-02-22T11:27:38.255Z,12.30
2023-02-22T11:30:22.729Z,12.50
2023-02-22T11:32:55.533Z,12.60
2023-02-22T11:35:40.286Z,12.60
2023-02-22T11:38:18.525Z,12.70
2023-02-22T11:40:47.102Z,12.70
2023-02-22T11:43:20.240Z,12.80
2023-02-22T11:46:02.549Z,12.80
2023-02-22T11:48:36.767Z,12.90
2023-02-22T11:51:16.821Z,12.90
2023-02-22T11:54:19.749Z,12.80
2023-02-22T11:56:51.286Z,12.90
2023-02-22T11:59:31.622Z,12.90
2023-02-22T12:02:18.783Z,13.00
2023-02-22T12:05:18.463Z,13.00
2023-02-22T12:07:57.422Z,13.10
2023-02-22T12:10:40.104Z,13.20
2023-02-22T12:13:26.142Z,13.20
2023-02-22T12:16:03.879Z,13.20
2023-02-22T12:18:40.473Z,13.30
2023-02-22T12:21:17.216Z,13.40
2023-02-22T12:23:50.667Z,13.40
2023-02-22T12:26:25.238Z,13.50
2023-02-22T12:28:59.349Z,13.50
2023-02-22T12:31:33.764Z,13.60
2023-02-22T12:34:09.513Z,13.50
2023-02-22T12:36:45.183Z,13.50
2023-02-22T12:39:28.463Z,13.40
2023-02-22T12:41:57.813Z,13.50
2023-02-22T12:44:29.710Z,13.60
2023-02-22T12:47:01.489Z,13.70
2023-02-22T12:49:37.199Z,13.70
2023-02-22T12:52:21.860Z,13.70
2023-02-22T12:54:57.377Z,13.70
2023-02-22T12:57:37.143Z,13.80
2023-02-22T13:00:11.995Z,13.90
2023-02-22T13:02:45.053Z,13.90
2023-02-22T13:05:17.805Z,13.90
2023-02-22T13:07:58.417Z,13.90
2023-02-22T13:10:40.713Z,13.80
2023-02-22T13:13:19.926Z,13.90
2023-02-22T13:15:55.116Z,13.90
2023-02-22T13:18:29.626Z,14.00
2023-02-22T13:21:03.620Z,13.90
2023-02-22T13:23:43.413Z,13.90
2023-02-22T13:26:19.675Z,13.90
2023-02-22T13:28:51.819Z,13.80
2023-02-22T13:31:38.603Z,13.70
2023-02-22T13:34:22.901Z,13.60
2023-02-22T13:37:06.781Z,13.50
2023-02-22T13:39:54.724Z,13.60
2023-02-22T13:42:44.014Z,13.70
2023-02-22T13:45:49.129Z,13.70
2023-02-22T13:48:48.385Z,13.80
2023-02-22T13:51:37.922Z,13.80
2023-02-22T13:54:13.761Z,13.90
2023-02-22T13:56:45.757Z,13.90
2023-02-22T13:59:26.518Z,14.00
2023-02-22T14:01:56.100Z,14.00
2023-02-22T14:04:45.248Z,13.90
2023-02-22T14:07:56.183Z,13.70
2023-02-22T14:10:46.535Z,13.70
2023-02-22T14:13:18.120Z,13.60
2023-02-22T14:16:18.667Z,13.70
2023-02-22T14:18:49.910Z,13.70
2023-02-22T14:21:20.415Z,13.60
2023-02-22T14:23:50.161Z,13.40
2023-02-22T14:26:23.334Z,13.40
2023-02-22T14:28:57.937Z,13.40
2023-02-22T14:31:37.526Z,13.40
2023-02-22T14:34:11.433Z,13.40
2023-02-22T14:36:50.819Z,13.40
2023-02-22T14:39:32.147Z,13.50
2023-02-22T14:42:03.970Z,13.50
2023-02-22T14:44:36.952Z,13.40
2023-02-22T14:47:08.369Z,13.30
2023-02-22T14:49:41.476Z,13.40
2023-02-22T14:52:19.482Z,13.30
2023-02-22T14:54:59.807Z,13.30
2023-02-22T14:58:02.192Z,13.20
2023-02-22T15:00:42.024Z,13.20
2023-02-22T15:03:20.921Z,13.10
2023-02-22T15:05:50.668Z,13.10
2023-02-22T15:08:28.051Z,13.00
2023-02-22T15:10:56.255Z,13.00
2023-02-22T15:13:26.688Z,13.00
2023-02-22T15:16:01.559Z,12.90
2023-02-22T15:18:36.202Z,12.90
2023-02-22T15:21:07.785Z,13.00
2023-02-22T15:23:45.558Z,12.90
2023-02-22T15:26:23.810Z,12.90
2023-02-22T15:28:55.409Z,12.80
2023-02-22T15:31:32.780Z,12.80
2023-02-22T15:34:19.070Z,12.70
2023-02-22T15:36:51.233Z,12.70
2023-02-22T15:39:22.843Z,12.70
2023-02-22T15:42:03.258Z,12.60
2023-02-22T15:44:37.249Z,12.60
2023-02-22T15:47:07.372Z,12.50
2023-02-22T15:49:38.552Z,12.50
2023-02-22T15:52:10.942Z,12.50
2023-02-22T15:54:45.051Z,12.50
2023-02-22T15:57:17.071Z,12.40
2023-02-22T15:59:49.612Z,12.30
2023-02-22T16:02:34.412Z,12.30
2023-02-22T16:05:08.838Z,12.30
2023-02-22T16:07:45.609Z,12.30
2023-02-22T16:10:23.413Z,12.20
2023-02-22T16:13:03.961Z,12.10
2023-02-22T16:15:57.111Z,12.10
2023-02-22T16:21:22.610Z,11.80
2023-02-22T16:23:52.108Z,11.70
2023-02-22T16:26:23.699Z,11.60
2023-02-22T16:28:54.831Z,11.60
2023-02-22T16:31:25.276Z,11.40
2023-02-22T16:33:55.382Z,11.40
2023-02-22T16:36:36.886Z,11.30
2023-02-22T16:39:07.320Z,11.30
2023-02-22T16:41:35.476Z,11.20
2023-02-22T16:44:07.710Z,11.10
2023-02-22T16:46:38.381Z,11.10
2023-02-22T16:49:08.156Z,11.00
2023-02-22T16:51:41.582Z,11.00
2023-02-22T16:54:13.274Z,10.90
2023-02-22T16:56:42.386Z,10.90
2023-02-22T16:59:14.118Z,10.80
2023-02-22T17:01:43.444Z,10.70
2023-02-22T17:04:17.683Z,10.70
2023-02-22T17:07:05.513Z,10.60
2023-02-22T17:09:33.877Z,10.50
2023-02-22T17:12:02.747Z,10.50
2023-02-22T17:14:34.564Z,10.50
2023-02-22T17:17:02.862Z,10.40
2023-02-22T17:19:33.297Z,10.40
2023-02-22T17:22:05.981Z,10.30
2023-02-22T17:24:34.318Z,10.30
2023-02-22T17:27:02.344Z,10.30
2023-02-22T17:29:30.755Z,10.20
2023-02-22T17:31:59.648Z,10.20
2023-02-22T17:34:28.146Z,10.00
2023-02-22T17:37:19.317Z,10.00
2023-02-22T17:39:47.969Z,10.00
2023-02-22T17:42:16.302Z,9.90
2023-02-22T17:44:44.315Z,9.90
2023-02-22T17:47:13.020Z,9.80
2023-02-22T17:49:41.193Z,9.70
2023-02-22T17:52:09.579Z,9.70
2023-02-22T17:54:39.448Z,9.60
2023-02-22T17:57:07.907Z,9.50
2023-02-22T17:59:35.936Z,9.50
2023-02-22T18:02:04.396Z,9.40
2023-02-22T18:04:34.697Z,9.40
2023-02-22T18:07:04.751Z,9.30
2023-02-22T18:09:34.051Z,9.20
2023-02-22T18:12:03.719Z,9.20
2023-02-22T18:14:31.778Z,9.20
2023-02-22T18:17:01.234Z,9.10
2023-02-22T18:19:30.285Z,9.20
2023-02-22T18:22:00.203Z,9.10
2023-02-22T18:24:28.465Z,9.10
2023-02-22T18:26:57.068Z,9.10
2023-02-22T18:29:28.994Z,9.10
2023-02-22T18:31:57.286Z,9.10
2023-02-22T18:34:25.443Z,9.00
2023-02-22T18:36:53.473Z,9.00
2023-02-22T18:39:22.592Z,9.00
2023-02-22T18:41:51.151Z,8.90
2023-02-22T18:44:19.880Z,8.80
2023-02-22T18:46:50.662Z,8.80
2023-02-22T18:49:18.724Z,8.70
2023-02-22T18:51:47.068Z,8.70
2023-02-22T18:54:15.682Z,8.60
2023-02-22T18:56:44.097Z,8.50
2023-02-22T18:59:13.965Z,8.50
2023-02-22T19:01:48.733Z,8.40
2023-02-22T19:04:19.346Z,8.30
2023-02-22T19:06:49.783Z,8.30
2023-02-22T19:09:17.979Z,8.20
2023-02-22T19:11:48.693Z,8.10
2023-02-22T19:14:18.438Z,8.10
2023-02-22T19:16:47.048Z,8.00
2023-02-22T19:19:20.681Z,8.00
2023-02-22T19:21:51.462Z,8.00
2023-02-22T19:24:20.512Z,7.90
2023-02-22T19:26:51.392Z,7.90
2023-02-22T19:29:22.197Z,7.90
2023-02-22T19:31:51.344Z,7.80
2023-02-22T19:34:21.858Z,7.70
2023-02-22T19:36:51.484Z,7.70
2023-02-22T19:41:54.201Z,7.60
2023-02-22T19:44:22.569Z,7.50
2023-02-22T19:46:50.734Z,7.50
2023-02-22T19:49:18.851Z,7.50
2023-02-22T19:51:47.229Z,7.50
2023-02-22T19:54:21.255Z,7.50
2023-02-22T19:56:51.283Z,7.40
2023-02-22T19:59:22.878Z,7.40
2023-02-22T20:01:54.020Z,7.40
2023-02-22T20:04:22.720Z,7.40
2023-02-22T20:06:54.922Z,7.40
2023-02-22T20:09:29.877Z,7.30
2023-02-22T20:11:58.407Z,7.30
2023-02-22T20:14:28.556Z,7.30
2023-02-22T20:16:58.020Z,7.30
2023-02-22T20:19:26.763Z,7.30
2023-02-22T20:21:56.913Z,7.30
2023-02-22T20:24:27.648Z,7.30
2023-02-22T20:26:58.567Z,7.20
2023-02-22T20:29:30.308Z,7.10
2023-02-22T20:31:59.597Z,7.10
2023-02-22T20:34:31.205Z,7.10
2023-02-22T20:36:59.715Z,7.10
2023-02-22T20:39:29.448Z,7.00
2023-02-22T20:42:00.440Z,7.00
2023-02-22T20:44:29.455Z,7.00
2023-02-22T20:46:57.461Z,7.00
2023-02-22T20:49:30.036Z,7.00
2023-02-22T20:51:58.422Z,7.00
2023-02-22T20:54:29.145Z,6.90
2023-02-22T20:56:57.128Z,6.80
2023-02-22T20:59:26.623Z,6.80
2023-02-22T21:01:54.897Z,6.80
2023-02-22T21:04:23.333Z,6.90
2023-02-22T21:06:52.063Z,6.90
2023-02-22T21:09:22.375Z,6.90
2023-02-22T21:11:51.675Z,6.90
2023-02-22T21:14:20.192Z,6.80
2023-02-22T21:16:50.157Z,6.90
2023-02-22T21:19:25.358Z,6.80
2023-02-22T21:21:55.890Z,6.80
2023-02-22T21:24:25.121Z,6.80
2023-02-22T21:26:55.808Z,6.80
2023-02-22T21:29:25.408Z,6.70
2023-02-22T21:31:53.597Z,6.70
2023-02-22T21:34:22.342Z,6.70
2023-02-22T21:36:52.409Z,6.70
2023-02-22T21:39:20.655Z,6.70
2023-02-22T21:41:51.293Z,6.60
2023-02-22T21:44:22.246Z,6.60
2023-02-22T21:46:50.257Z,6.60
2023-02-22T21:49:22.229Z,6.60
2023-02-22T21:51:53.099Z,6.50
2023-02-22T21:54:21.781Z,6.50
2023-02-22T21:56:50.504Z,6.40
2023-02-22T21:59:20.063Z,6.40
2023-02-22T22:01:52.160Z,6.40
2023-02-22T22:04:22.400Z,6.40
2023-02-22T22:06:52.905Z,6.30
2023-02-22T22:09:23.547Z,6.30
2023-02-22T22:11:54.496Z,6.30
2023-02-22T22:14:25.191Z,6.30
2023-02-22T22:16:58.485Z,6.30
2023-02-22T22:19:26.944Z,6.20
2023-02-22T22:21:54.873Z,6.20
2023-02-22T22:24:24.259Z,6.10
2023-02-22T22:26:54.940Z,6.10
2023-02-22T22:29:24.571Z,6.10
2023-02-22T22:31:54.884Z,6.10
2023-02-22T22:34:24.288Z,6.10
2023-02-22T22:36:53.414Z,6.10
2023-02-22T22:39:21.412Z,6.10
2023-02-22T22:41:49.827Z,6.00
2023-02-22T22:44:22.228Z,6.00
2023-02-22T22:46:53.461Z,6.00
2023-02-22T22:49:25.503Z,5.90
2023-02-22T22:51:54.477Z,5.90
2023-02-22T22:54:22.416Z,5.90
2023-02-22T22:56:51.410Z,6.00
2023-02-22T22:59:19.620Z,5.90
2023-02-22T23:01:48.149Z,5.90
2023-02-22T23:04:17.832Z,5.90
2023-02-22T23:06:50.855Z,6.00
2023-02-22T23:09:21.699Z,5.90
2023-02-22T23:11:53.641Z,6.00
2023-02-22T23:14:24.126Z,5.90
2023-02-22T23:16:57.400Z,6.00
2023-02-22T23:19:25.422Z,5.90
2023-02-22T23:21:55.979Z,5.90
2023-02-22T23:24:27.539Z,5.90
2023-02-22T23:27:00.045Z,5.90
2023-02-22T23:29:29.931Z,5.90
2023-02-22T23:31:58.715Z,5.90
2023-02-22T23:34:28.900Z,5.90
2023-02-22T23:36:58.362Z,5.90
2023-02-22T23:39:27.229Z,5.80
2023-02-22T23:41:59.116Z,5.80
2023-02-22T23:44:28.420Z,5.80
2023-02-22T23:46:56.480Z,5.90
2023-02-22T23:49:26.206Z,5.80
2023-02-22T23:51:55.021Z,5.80
2023-02-22T23:54:24.794Z,5.80
2023-02-22T23:56:56.606Z,5.80
2023-02-22T23:59:26.797Z,5.70
